sensor_id;sensor_type;location;lat;lon;timestamp;P1;durP1;ratioP1;P2;durP2;ratioP2
8139;SDS011;4111;50.972;7.072;2024-03-08T00:02:36;16.33;;;12.70;;
8139;SDS011;4111;50.972;7.072;2024-03-08T00:05:03;15.27;;;12.73;;
8139;SDS011;4111;50.972;7.072;2024-03-08T00:07:31;13.83;;;12.33;;
8139;SDS011;4111;50.972;7.072;2024-03-08T00:09:57;17.10;;;13.57;;
8139;SDS011;4111;50.972;7.072;2024-03-08T00:12:24;16.50;;;13.17;;
8139;SDS011;4111;50.972;7.072;2024-03-08T00:14:53;15.80;;;12.83;;
8139;SDS011;4111;50.972;7.072;2024-03-08T00:17:21;14.20;;;11.77;;
8139;SDS011;4111;50.972;7.072;2024-03-08T00:19:50;14.23;;;12.73;;
8139;SDS011;4111;50.972;7.072;2024-03-08T00:22:17;15.03;;;12.47;;
8139;SDS011;4111;50.972;7.072;2024-03-08T00:24:43;15.47;;;12.93;;
8139;SDS011;4111;50.972;7.072;2024-03-08T00:27:10;15.17;;;12.67;;
8139;SDS011;4111;50.972;7.072;2024-03-08T00:29:37;16.37;;;13.33;;
8139;SDS011;4111;50.972;7.072;2024-03-08T00:32:05;16.27;;;14.00;;
8139;SDS011;4111;50.972;7.072;2024-03-08T00:34:31;15.87;;;13.90;;
8139;SDS011;4111;50.972;7.072;2024-03-08T00:36:57;15.33;;;13.67;;
8139;SDS011;4111;50.972;7.072;2024-03-08T00:39:24;14.47;;;12.40;;
8139;SDS011;4111;50.972;7.072;2024-03-08T00:41:51;16.03;;;13.33;;
8139;SDS011;4111;50.972;7.072;2024-03-08T00:44:18;15.33;;;13.43;;
8139;SDS011;4111;50.972;7.072;2024-03-08T00:46:44;18.80;;;14.13;;
8139;SDS011;4111;50.972;7.072;2024-03-08T00:49:11;17.67;;;13.23;;
8139;SDS011;4111;50.972;7.072;2024-03-08T00:51:38;16.07;;;13.47;;
8139;SDS011;4111;50.972;7.072;2024-03-08T00:54:05;16.97;;;12.73;;
8139;SDS011;4111;50.972;7.072;2024-03-08T00:56:31;15.23;;;13.13;;
8139;SDS011;4111;50.972;7.072;2024-03-08T00:58:59;17.47;;;13.73;;
8139;SDS011;4111;50.972;7.072;2024-03-08T01:01:26;18.90;;;14.23;;
8139;SDS011;4111;50.972;7.072;2024-03-08T01:03:52;15.27;;;13.67;;
8139;SDS011;4111;50.972;7.072;2024-03-08T01:06:19;18.57;;;14.23;;
8139;SDS011;4111;50.972;7.072;2024-03-08T01:08:45;17.50;;;13.27;;
8139;SDS011;4111;50.972;7.072;2024-03-08T01:11:13;14.83;;;13.23;;
8139;SDS011;4111;50.972;7.072;2024-03-08T01:13:40;16.23;;;14.53;;
8139;SDS011;4111;50.972;7.072;2024-03-08T01:16:07;19.90;;;14.53;;
8139;SDS011;4111;50.972;7.072;2024-03-08T01:18:33;16.53;;;13.37;;
8139;SDS011;4111;50.972;7.072;2024-03-08T01:21:00;15.30;;;12.83;;
8139;SDS011;4111;50.972;7.072;2024-03-08T01:23:26;17.07;;;14.00;;
8139;SDS011;4111;50.972;7.072;2024-03-08T01:25:53;17.17;;;13.93;;
8139;SDS011;4111;50.972;7.072;2024-03-08T01:28:23;18.37;;;13.77;;
8139;SDS011;4111;50.972;7.072;2024-03-08T01:30:51;18.27;;;13.73;;
8139;SDS011;4111;50.972;7.072;2024-03-08T01:33:22;15.90;;;14.20;;
8139;SDS011;4111;50.972;7.072;2024-03-08T01:35:50;16.00;;;14.30;;
8139;SDS011;4111;50.972;7.072;2024-03-08T01:38:16;20.70;;;14.47;;
8139;SDS011;4111;50.972;7.072;2024-03-08T01:40:43;16.17;;;13.53;;
8139;SDS011;4111;50.972;7.072;2024-03-08T01:43:22;15.63;;;13.33;;
8139;SDS011;4111;50.972;7.072;2024-03-08T01:45:53;18.10;;;14.73;;
8139;SDS011;4111;50.972;7.072;2024-03-08T01:48:20;17.43;;;14.37;;
8139;SDS011;4111;50.972;7.072;2024-03-08T01:50:51;16.07;;;14.07;;
8139;SDS011;4111;50.972;7.072;2024-03-08T01:53:18;15.90;;;14.00;;
8139;SDS011;4111;50.972;7.072;2024-03-08T01:55:45;15.70;;;13.80;;
8139;SDS011;4111;50.972;7.072;2024-03-08T01:58:13;15.70;;;13.83;;
8139;SDS011;4111;50.972;7.072;2024-03-08T02:00:46;15.80;;;14.20;;
8139;SDS011;4111;50.972;7.072;2024-03-08T02:03:17;19.20;;;14.33;;
8139;SDS011;4111;50.972;7.072;2024-03-08T02:05:43;19.10;;;14.70;;
8139;SDS011;4111;50.972;7.072;2024-03-08T02:08:10;18.17;;;14.90;;
8139;SDS011;4111;50.972;7.072;2024-03-08T02:10:44;16.80;;;14.13;;
8139;SDS011;4111;50.972;7.072;2024-03-08T02:13:11;16.53;;;14.07;;
8139;SDS011;4111;50.972;7.072;2024-03-08T02:15:53;17.43;;;14.13;;
8139;SDS011;4111;50.972;7.072;2024-03-08T02:18:25;20.57;;;14.60;;
8139;SDS011;4111;50.972;7.072;2024-03-08T02:20:53;18.30;;;14.90;;
8139;SDS011;4111;50.972;7.072;2024-03-08T02:23:31;15.87;;;14.10;;
8139;SDS011;4111;50.972;7.072;2024-03-08T02:25:59;16.50;;;13.37;;
8139;SDS011;4111;50.972;7.072;2024-03-08T02:28:25;17.47;;;14.73;;
8139;SDS011;4111;50.972;7.072;2024-03-08T02:30:52;17.53;;;14.67;;
8139;SDS011;4111;50.972;7.072;2024-03-08T02:33:22;18.93;;;14.70;;
8139;SDS011;4111;50.972;7.072;2024-03-08T02:35:49;16.73;;;14.50;;
8139;SDS011;4111;50.972;7.072;2024-03-08T02:38:20;20.40;;;15.23;;
8139;SDS011;4111;50.972;7.072;2024-03-08T02:40:48;17.20;;;14.47;;
8139;SDS011;4111;50.972;7.072;2024-03-08T02:43:16;18.03;;;15.13;;
8139;SDS011;4111;50.972;7.072;2024-03-08T02:45:44;18.53;;;15.00;;
8139;SDS011;4111;50.972;7.072;2024-03-08T02:48:14;15.83;;;14.20;;
8139;SDS011;4111;50.972;7.072;2024-03-08T02:50:42;16.83;;;14.83;;
8139;SDS011;4111;50.972;7.072;2024-03-08T02:53:11;16.67;;;14.47;;
8139;SDS011;4111;50.972;7.072;2024-03-08T02:55:38;16.30;;;14.60;;
8139;SDS011;4111;50.972;7.072;2024-03-08T02:58:05;16.03;;;14.20;;
8139;SDS011;4111;50.972;7.072;2024-03-08T03:00:34;16.97;;;14.33;;
8139;SDS011;4111;50.972;7.072;2024-03-08T03:03:01;18.80;;;14.77;;
8139;SDS011;4111;50.972;7.072;2024-03-08T03:05:29;18.50;;;14.57;;
8139;SDS011;4111;50.972;7.072;2024-03-08T03:07:56;17.93;;;13.87;;
8139;SDS011;4111;50.972;7.072;2024-03-08T03:10:24;16.60;;;13.83;;
8139;SDS011;4111;50.972;7.072;2024-03-08T03:12:50;19.60;;;14.97;;
8139;SDS011;4111;50.972;7.072;2024-03-08T03:15:17;18.63;;;15.27;;
8139;SDS011;4111;50.972;7.072;2024-03-08T03:17:50;18.13;;;15.07;;
8139;SDS011;4111;50.972;7.072;2024-03-08T03:20:18;18.10;;;15.40;;
8139;SDS011;4111;50.972;7.072;2024-03-08T03:23:41;16.50;;;14.23;;
8139;SDS011;4111;50.972;7.072;2024-03-08T03:26:01;18.43;;;14.87;;
8139;SDS011;4111;50.972;7.072;2024-03-08T03:28:28;18.63;;;14.70;;
8139;SDS011;4111;50.972;7.072;2024-03-08T03:30:55;16.80;;;14.57;;
8139;SDS011;4111;50.972;7.072;2024-03-08T03:33:25;18.67;;;14.27;;
8139;SDS011;4111;50.972;7.072;2024-03-08T03:35:52;17.13;;;14.30;;
8139;SDS011;4111;50.972;7.072;2024-03-08T03:38:18;17.90;;;14.20;;
8139;SDS011;4111;50.972;7.072;2024-03-08T03:40:46;16.43;;;14.30;;
8139;SDS011;4111;50.972;7.072;2024-03-08T03:43:14;16.53;;;13.77;;
8139;SDS011;4111;50.972;7.072;2024-03-08T03:45:41;20.13;;;14.70;;
8139;SDS011;4111;50.972;7.072;2024-03-08T03:48:08;17.60;;;13.93;;
8139;SDS011;4111;50.972;7.072;2024-03-08T03:50:37;17.87;;;14.23;;
8139;SDS011;4111;50.972;7.072;2024-03-08T03:53:04;18.33;;;15.27;;
8139;SDS011;4111;50.972;7.072;2024-03-08T03:55:34;16.57;;;13.87;;
8139;SDS011;4111;50.972;7.072;2024-03-08T03:58:03;18.37;;;14.23;;
8139;SDS011;4111;50.972;7.072;2024-03-08T04:00:29;18.93;;;15.30;;
8139;SDS011;4111;50.972;7.072;2024-03-08T04:02:56;18.27;;;14.23;;
8139;SDS011;4111;50.972;7.072;2024-03-08T04:05:25;19.93;;;14.60;;
8139;SDS011;4111;50.972;7.072;2024-03-08T04:07:52;16.47;;;13.93;;
8139;SDS011;4111;50.972;7.072;2024-03-08T04:10:18;17.23;;;13.93;;
8139;SDS011;4111;50.972;7.072;2024-03-08T04:12:46;18.90;;;14.60;;
8139;SDS011;4111;50.972;7.072;2024-03-08T04:15:12;16.87;;;13.70;;
8139;SDS011;4111;50.972;7.072;2024-03-08T04:17:38;18.70;;;14.87;;
8139;SDS011;4111;50.972;7.072;2024-03-08T04:20:05;18.63;;;14.17;;
8139;SDS011;4111;50.972;7.072;2024-03-08T04:22:40;19.03;;;15.27;;
8139;SDS011;4111;50.972;7.072;2024-03-08T04:25:06;19.07;;;15.17;;
8139;SDS011;4111;50.972;7.072;2024-03-08T04:27:33;18.07;;;13.70;;
8139;SDS011;4111;50.972;7.072;2024-03-08T04:30:01;16.67;;;14.60;;
8139;SDS011;4111;50.972;7.072;2024-03-08T04:32:28;19.47;;;15.90;;
8139;SDS011;4111;50.972;7.072;2024-03-08T04:34:56;19.30;;;14.87;;
8139;SDS011;4111;50.972;7.072;2024-03-08T04:37:23;19.90;;;14.83;;
8139;SDS011;4111;50.972;7.072;2024-03-08T04:39:50;18.50;;;15.33;;
8139;SDS011;4111;50.972;7.072;2024-03-08T04:42:16;18.17;;;14.23;;
8139;SDS011;4111;50.972;7.072;2024-03-08T04:44:44;17.63;;;14.43;;
8139;SDS011;4111;50.972;7.072;2024-03-08T04:47:11;19.23;;;14.20;;
8139;SDS011;4111;50.972;7.072;2024-03-08T04:49:37;18.97;;;14.63;;
8139;SDS011;4111;50.972;7.072;2024-03-08T04:52:04;23.60;;;14.93;;
8139;SDS011;4111;50.972;7.072;2024-03-08T04:54:31;17.50;;;14.03;;
8139;SDS011;4111;50.972;7.072;2024-03-08T04:56:57;18.50;;;14.73;;
8139;SDS011;4111;50.972;7.072;2024-03-08T04:59:26;17.50;;;14.57;;
8139;SDS011;4111;50.972;7.072;2024-03-08T05:01:53;19.23;;;15.03;;
8139;SDS011;4111;50.972;7.072;2024-03-08T05:04:20;18.27;;;14.27;;
8139;SDS011;4111;50.972;7.072;2024-03-08T05:06:46;20.43;;;14.90;;
8139;SDS011;4111;50.972;7.072;2024-03-08T05:09:13;17.43;;;14.67;;
8139;SDS011;4111;50.972;7.072;2024-03-08T05:11:41;21.47;;;14.53;;
8139;SDS011;4111;50.972;7.072;2024-03-08T05:14:09;19.90;;;15.63;;
8139;SDS011;4111;50.972;7.072;2024-03-08T05:16:35;21.73;;;15.83;;
8139;SDS011;4111;50.972;7.072;2024-03-08T05:19:02;19.70;;;15.33;;
8139;SDS011;4111;50.972;7.072;2024-03-08T05:21:29;21.23;;;15.57;;
8139;SDS011;4111;50.972;7.072;2024-03-08T05:23:55;19.77;;;14.63;;
8139;SDS011;4111;50.972;7.072;2024-03-08T05:26:22;18.90;;;15.47;;
8139;SDS011;4111;50.972;7.072;2024-03-08T05:28:48;19.77;;;15.37;;
8139;SDS011;4111;50.972;7.072;2024-03-08T05:31:19;19.10;;;15.30;;
8139;SDS011;4111;50.972;7.072;2024-03-08T05:33:49;19.50;;;16.27;;
8139;SDS011;4111;50.972;7.072;2024-03-08T05:36:16;19.90;;;16.37;;
8139;SDS011;4111;50.972;7.072;2024-03-08T05:38:43;21.60;;;16.27;;
8139;SDS011;4111;50.972;7.072;2024-03-08T05:41:10;18.97;;;15.27;;
8139;SDS011;4111;50.972;7.072;2024-03-08T05:43:38;19.00;;;15.90;;
8139;SDS011;4111;50.972;7.072;2024-03-08T05:46:06;18.10;;;15.53;;
8139;SDS011;4111;50.972;7.072;2024-03-08T05:48:33;19.30;;;15.67;;
8139;SDS011;4111;50.972;7.072;2024-03-08T05:51:00;18.03;;;14.93;;
8139;SDS011;4111;50.972;7.072;2024-03-08T05:53:28;20.03;;;16.13;;
8139;SDS011;4111;50.972;7.072;2024-03-08T05:55:58;22.63;;;16.37;;
8139;SDS011;4111;50.972;7.072;2024-03-08T05:58:24;24.13;;;16.23;;
8139;SDS011;4111;50.972;7.072;2024-03-08T06:00:51;21.60;;;16.40;;
8139;SDS011;4111;50.972;7.072;2024-03-08T06:03:19;21.93;;;15.90;;
8139;SDS011;4111;50.972;7.072;2024-03-08T06:05:50;21.50;;;15.97;;
8139;SDS011;4111;50.972;7.072;2024-03-08T06:08:17;20.80;;;15.77;;
8139;SDS011;4111;50.972;7.072;2024-03-08T06:10:45;19.97;;;15.57;;
8139;SDS011;4111;50.972;7.072;2024-03-08T06:13:12;20.37;;;16.13;;
8139;SDS011;4111;50.972;7.072;2024-03-08T06:15:38;19.63;;;14.83;;
8139;SDS011;4111;50.972;7.072;2024-03-08T06:18:05;22.57;;;15.93;;
8139;SDS011;4111;50.972;7.072;2024-03-08T06:20:32;21.23;;;15.20;;
8139;SDS011;4111;50.972;7.072;2024-03-08T06:22:59;20.93;;;16.60;;
8139;SDS011;4111;50.972;7.072;2024-03-08T06:25:27;22.03;;;16.07;;
8139;SDS011;4111;50.972;7.072;2024-03-08T06:27:54;19.53;;;16.07;;
8139;SDS011;4111;50.972;7.072;2024-03-08T06:30:20;20.23;;;16.57;;
8139;SDS011;4111;50.972;7.072;2024-03-08T06:32:47;21.57;;;16.87;;
8139;SDS011;4111;50.972;7.072;2024-03-08T06:35:15;20.30;;;16.47;;
8139;SDS011;4111;50.972;7.072;2024-03-08T06:37:42;20.70;;;15.43;;
8139;SDS011;4111;50.972;7.072;2024-03-08T06:40:10;20.40;;;16.63;;
8139;SDS011;4111;50.972;7.072;2024-03-08T06:42:40;20.10;;;16.53;;
8139;SDS011;4111;50.972;7.072;2024-03-08T06:45:07;19.63;;;15.67;;
8139;SDS011;4111;50.972;7.072;2024-03-08T06:47:36;20.07;;;16.00;;
8139;SDS011;4111;50.972;7.072;2024-03-08T06:50:03;19.30;;;16.10;;
8139;SDS011;4111;50.972;7.072;2024-03-08T06:52:30;21.17;;;16.80;;
8139;SDS011;4111;50.972;7.072;2024-03-08T06:54:57;18.47;;;16.17;;
8139;SDS011;4111;50.972;7.072;2024-03-08T06:57:24;17.50;;;15.27;;
8139;SDS011;4111;50.972;7.072;2024-03-08T06:59:50;25.23;;;17.23;;
8139;SDS011;4111;50.972;7.072;2024-03-08T07:02:18;21.80;;;17.47;;
8139;SDS011;4111;50.972;7.072;2024-03-08T07:04:45;20.93;;;16.23;;
8139;SDS011;4111;50.972;7.072;2024-03-08T07:07:11;23.80;;;17.03;;
8139;SDS011;4111;50.972;7.072;2024-03-08T07:09:37;20.40;;;16.40;;
8139;SDS011;4111;50.972;7.072;2024-03-08T07:12:04;22.00;;;16.93;;
8139;SDS011;4111;50.972;7.072;2024-03-08T07:14:30;20.73;;;15.47;;
8139;SDS011;4111;50.972;7.072;2024-03-08T07:16:57;21.33;;;15.33;;
8139;SDS011;4111;50.972;7.072;2024-03-08T07:19:23;19.80;;;15.40;;
8139;SDS011;4111;50.972;7.072;2024-03-08T07:21:50;21.63;;;16.13;;
8139;SDS011;4111;50.972;7.072;2024-03-08T07:24:16;19.20;;;15.90;;
8139;SDS011;4111;50.972;7.072;2024-03-08T07:26:43;19.40;;;15.27;;
8139;SDS011;4111;50.972;7.072;2024-03-08T07:29:10;21.30;;;17.03;;
8139;SDS011;4111;50.972;7.072;2024-03-08T07:31:36;21.63;;;15.97;;
8139;SDS011;4111;50.972;7.072;2024-03-08T07:34:22;21.23;;;15.00;;
8139;SDS011;4111;50.972;7.072;2024-03-08T07:36:48;19.47;;;15.67;;
8139;SDS011;4111;50.972;7.072;2024-03-08T07:39:17;20.13;;;15.93;;
8139;SDS011;4111;50.972;7.072;2024-03-08T07:41:43;20.70;;;14.67;;
8139;SDS011;4111;50.972;7.072;2024-03-08T07:44:10;18.30;;;15.67;;
8139;SDS011;4111;50.972;7.072;2024-03-08T07:46:36;17.47;;;15.30;;
8139;SDS011;4111;50.972;7.072;2024-03-08T07:49:03;19.70;;;15.70;;
8139;SDS011;4111;50.972;7.072;2024-03-08T07:51:29;18.67;;;15.33;;
8139;SDS011;4111;50.972;7.072;2024-03-08T07:53:56;17.80;;;15.60;;
8139;SDS011;4111;50.972;7.072;2024-03-08T07:56:23;19.83;;;15.67;;
8139;SDS011;4111;50.972;7.072;2024-03-08T07:58:51;17.97;;;14.20;;
8139;SDS011;4111;50.972;7.072;2024-03-08T08:01:19;19.73;;;15.17;;
8139;SDS011;4111;50.972;7.072;2024-03-08T08:03:46;18.43;;;15.67;;
8139;SDS011;4111;50.972;7.072;2024-03-08T08:06:15;19.13;;;15.10;;
8139;SDS011;4111;50.972;7.072;2024-03-08T08:08:42;18.80;;;15.57;;
8139;SDS011;4111;50.972;7.072;2024-03-08T08:11:09;20.20;;;15.20;;
8139;SDS011;4111;50.972;7.072;2024-03-08T08:13:37;18.30;;;14.03;;
8139;SDS011;4111;50.972;7.072;2024-03-08T08:16:04;17.80;;;14.47;;
8139;SDS011;4111;50.972;7.072;2024-03-08T08:18:32;18.47;;;14.60;;
8139;SDS011;4111;50.972;7.072;2024-03-08T08:20:59;19.70;;;14.07;;
8139;SDS011;4111;50.972;7.072;2024-03-08T08:23:28;18.63;;;14.23;;
8139;SDS011;4111;50.972;7.072;2024-03-08T08:25:56;19.73;;;14.10;;
8139;SDS011;4111;50.972;7.072;2024-03-08T08:28:22;19.07;;;14.67;;
8139;SDS011;4111;50.972;7.072;2024-03-08T08:30:49;16.73;;;14.93;;
8139;SDS011;4111;50.972;7.072;2024-03-08T08:33:16;18.10;;;15.37;;
8139;SDS011;4111;50.972;7.072;2024-03-08T08:35:42;16.07;;;13.97;;
8139;SDS011;4111;50.972;7.072;2024-03-08T08:38:08;19.03;;;15.47;;
8139;SDS011;4111;50.972;7.072;2024-03-08T08:40:35;16.73;;;14.17;;
8139;SDS011;4111;50.972;7.072;2024-03-08T08:43:03;15.90;;;14.17;;
8139;SDS011;4111;50.972;7.072;2024-03-08T08:45:33;17.53;;;14.47;;
8139;SDS011;4111;50.972;7.072;2024-03-08T08:47:59;18.10;;;14.73;;
8139;SDS011;4111;50.972;7.072;2024-03-08T08:50:26;16.17;;;13.97;;
8139;SDS011;4111;50.972;7.072;2024-03-08T08:52:54;16.50;;;13.50;;
8139;SDS011;4111;50.972;7.072;2024-03-08T08:55:21;16.10;;;13.73;;
8139;SDS011;4111;50.972;7.072;2024-03-08T08:57:52;16.30;;;13.53;;
8139;SDS011;4111;50.972;7.072;2024-03-08T09:00:19;15.80;;;12.93;;
8139;SDS011;4111;50.972;7.072;2024-03-08T09:02:46;19.30;;;13.90;;
8139;SDS011;4111;50.972;7.072;2024-03-08T09:05:14;15.47;;;13.77;;
8139;SDS011;4111;50.972;7.072;2024-03-08T09:07:46;15.30;;;12.77;;
8139;SDS011;4111;50.972;7.072;2024-03-08T09:10:12;16.73;;;13.73;;
8139;SDS011;4111;50.972;7.072;2024-03-08T09:12:43;15.80;;;13.50;;
8139;SDS011;4111;50.972;7.072;2024-03-08T09:15:10;14.87;;;13.00;;
8139;SDS011;4111;50.972;7.072;2024-03-08T09:17:39;16.47;;;12.93;;
8139;SDS011;4111;50.972;7.072;2024-03-08T09:20:07;15.77;;;13.03;;
8139;SDS011;4111;50.972;7.072;2024-03-08T09:22:43;14.13;;;12.13;;
8139;SDS011;4111;50.972;7.072;2024-03-08T09:25:10;15.00;;;13.10;;
8139;SDS011;4111;50.972;7.072;2024-03-08T09:27:37;14.67;;;13.10;;
8139;SDS011;4111;50.972;7.072;2024-03-08T09:30:05;16.10;;;13.63;;
8139;SDS011;4111;50.972;7.072;2024-03-08T09:32:32;18.00;;;12.60;;
8139;SDS011;4111;50.972;7.072;2024-03-08T09:34:59;15.07;;;13.43;;
8139;SDS011;4111;50.972;7.072;2024-03-08T09:37:27;14.63;;;12.97;;
8139;SDS011;4111;50.972;7.072;2024-03-08T09:39:53;15.67;;;13.07;;
8139;SDS011;4111;50.972;7.072;2024-03-08T09:42:20;16.33;;;12.43;;
8139;SDS011;4111;50.972;7.072;2024-03-08T09:44:46;14.30;;;12.53;;
8139;SDS011;4111;50.972;7.072;2024-03-08T09:47:13;14.07;;;12.60;;
8139;SDS011;4111;50.972;7.072;2024-03-08T09:49:41;14.13;;;12.60;;
8139;SDS011;4111;50.972;7.072;2024-03-08T09:52:07;14.77;;;11.47;;
8139;SDS011;4111;50.972;7.072;2024-03-08T09:54:34;14.47;;;12.70;;
8139;SDS011;4111;50.972;7.072;2024-03-08T09:57:01;13.93;;;11.87;;
8139;SDS011;4111;50.972;7.072;2024-03-08T09:59:30;14.93;;;13.03;;
8139;SDS011;4111;50.972;7.072;2024-03-08T10:02:03;13.73;;;12.17;;
8139;SDS011;4111;50.972;7.072;2024-03-08T10:04:30;14.03;;;11.70;;
8139;SDS011;4111;50.972;7.072;2024-03-08T10:06:59;12.83;;;11.27;;
8139;SDS011;4111;50.972;7.072;2024-03-08T10:09:27;16.33;;;11.50;;
8139;SDS011;4111;50.972;7.072;2024-03-08T10:11:57;12.50;;;11.20;;
8139;SDS011;4111;50.972;7.072;2024-03-08T10:14:26;13.60;;;11.97;;
8139;SDS011;4111;50.972;7.072;2024-03-08T10:16:53;13.23;;;11.57;;
8139;SDS011;4111;50.972;7.072;2024-03-08T10:19:20;12.67;;;11.37;;
8139;SDS011;4111;50.972;7.072;2024-03-08T10:21:48;14.47;;;12.43;;
8139;SDS011;4111;50.972;7.072;2024-03-08T10:24:15;12.87;;;11.47;;
8139;SDS011;4111;50.972;7.072;2024-03-08T10:26:43;12.43;;;11.23;;
8139;SDS011;4111;50.972;7.072;2024-03-08T10:29:10;13.27;;;11.87;;
8139;SDS011;4111;50.972;7.072;2024-03-08T10:31:44;14.80;;;11.30;;
8139;SDS011;4111;50.972;7.072;2024-03-08T10:34:11;12.47;;;11.17;;
8139;SDS011;4111;50.972;7.072;2024-03-08T10:36:38;13.27;;;11.07;;
8139;SDS011;4111;50.972;7.072;2024-03-08T10:39:16;12.40;;;11.07;;
8139;SDS011;4111;50.972;7.072;2024-03-08T10:41:58;12.50;;;11.20;;
8139;SDS011;4111;50.972;7.072;2024-03-08T10:47:01;11.17;;;10.00;;
8139;SDS011;4111;50.972;7.072;2024-03-08T10:49:32;11.90;;;10.70;;
8139;SDS011;4111;50.972;7.072;2024-03-08T10:52:05;11.60;;;10.20;;
8139;SDS011;4111;50.972;7.072;2024-03-08T10:54:34;11.53;;;9.80;;
8139;SDS011;4111;50.972;7.072;2024-03-08T10:57:10;11.23;;;9.57;;
8139;SDS011;4111;50.972;7.072;2024-03-08T10:59:39;13.23;;;10.17;;
8139;SDS011;4111;50.972;7.072;2024-03-08T11:02:06;10.43;;;9.43;;
8139;SDS011;4111;50.972;7.072;2024-03-08T11:04:33;11.30;;;9.90;;
8139;SDS011;4111;50.972;7.072;2024-03-08T11:07:00;10.43;;;9.40;;
8139;SDS011;4111;50.972;7.072;2024-03-08T11:09:37;10.90;;;9.50;;
8139;SDS011;4111;50.972;7.072;2024-03-08T11:14:50;10.33;;;9.00;;
8139;SDS011;4111;50.972;7.072;2024-03-08T11:18:00;9.87;;;8.87;;
8139;SDS011;4111;50.972;7.072;2024-03-08T11:20:14;9.00;;;8.07;;
8139;SDS011;4111;50.972;7.072;2024-03-08T11:25:35;12.30;;;9.03;;
8139;SDS011;4111;50.972;7.072;2024-03-08T11:28:15;9.10;;;8.20;;
8139;SDS011;4111;50.972;7.072;2024-03-08T11:30:45;13.30;;;8.63;;
8139;SDS011;4111;50.972;7.072;2024-03-08T11:33:28;8.40;;;7.60;;
8139;SDS011;4111;50.972;7.072;2024-03-08T11:36:08;10.07;;;8.27;;
8139;SDS011;4111;50.972;7.072;2024-03-08T11:38:41;9.73;;;8.37;;
8139;SDS011;4111;50.972;7.072;2024-03-08T11:41:08;10.33;;;8.10;;
8139;SDS011;4111;50.972;7.072;2024-03-08T11:43:35;9.20;;;7.83;;
8139;SDS011;4111;50.972;7.072;2024-03-08T11:46:11;10.50;;;7.90;;
8139;SDS011;4111;50.972;7.072;2024-03-08T11:48:41;8.63;;;7.73;;
8139;SDS011;4111;50.972;7.072;2024-03-08T11:51:11;8.87;;;7.50;;
8139;SDS011;4111;50.972;7.072;2024-03-08T11:53:38;9.00;;;7.87;;
8139;SDS011;4111;50.972;7.072;2024-03-08T11:56:06;8.57;;;7.67;;
8139;SDS011;4111;50.972;7.072;2024-03-08T11:58:34;8.17;;;7.37;;
8139;SDS011;4111;50.972;7.072;2024-03-08T12:01:06;8.20;;;7.47;;
8139;SDS011;4111;50.972;7.072;2024-03-08T12:03:40;8.33;;;7.40;;
8139;SDS011;4111;50.972;7.072;2024-03-08T12:06:09;8.43;;;7.63;;
8139;SDS011;4111;50.972;7.072;2024-03-08T12:08:41;8.33;;;7.53;;
8139;SDS011;4111;50.972;7.072;2024-03-08T12:11:07;10.07;;;7.80;;
8139;SDS011;4111;50.972;7.072;2024-03-08T12:13:37;9.00;;;7.87;;
8139;SDS011;4111;50.972;7.072;2024-03-08T12:16:03;10.13;;;8.20;;
8139;SDS011;4111;50.972;7.072;2024-03-08T12:18:36;8.83;;;7.93;;
8139;SDS011;4111;50.972;7.072;2024-03-08T12:21:04;8.80;;;7.37;;
8139;SDS011;4111;50.972;7.072;2024-03-08T12:23:37;9.73;;;8.37;;
8139;SDS011;4111;50.972;7.072;2024-03-08T12:26:24;8.80;;;7.87;;
8139;SDS011;4111;50.972;7.072;2024-03-08T12:28:52;8.73;;;7.83;;
8139;SDS011;4111;50.972;7.072;2024-03-08T12:31:19;8.53;;;7.63;;
8139;SDS011;4111;50.972;7.072;2024-03-08T12:36:14;9.57;;;8.67;;
8139;SDS011;4111;50.972;7.072;2024-03-08T12:38:49;9.50;;;7.87;;
8139;SDS011;4111;50.972;7.072;2024-03-08T12:41:19;9.73;;;8.10;;
8139;SDS011;4111;50.972;7.072;2024-03-08T12:43:47;9.03;;;8.23;;
8139;SDS011;4111;50.972;7.072;2024-03-08T12:46:17;9.17;;;7.33;;
8139;SDS011;4111;50.972;7.072;2024-03-08T12:48:48;9.17;;;8.27;;
8139;SDS011;4111;50.972;7.072;2024-03-08T12:51:15;8.73;;;7.93;;
8139;SDS011;4111;50.972;7.072;2024-03-08T12:53:42;8.17;;;7.37;;
8139;SDS011;4111;50.972;7.072;2024-03-08T12:56:12;9.10;;;8.20;;
8139;SDS011;4111;50.972;7.072;2024-03-08T12:58:43;8.50;;;7.70;;
8139;SDS011;4111;50.972;7.072;2024-03-08T13:01:10;8.57;;;7.70;;
8139;SDS011;4111;50.972;7.072;2024-03-08T13:03:38;9.20;;;8.37;;
8139;SDS011;4111;50.972;7.072;2024-03-08T13:06:05;8.97;;;8.07;;
8139;SDS011;4111;50.972;7.072;2024-03-08T13:08:36;7.40;;;6.80;;
8139;SDS011;4111;50.972;7.072;2024-03-08T13:11:05;7.47;;;6.77;;
8139;SDS011;4111;50.972;7.072;2024-03-08T13:13:37;8.43;;;7.53;;
8139;SDS011;4111;50.972;7.072;2024-03-08T13:16:06;8.53;;;7.73;;
8139;SDS011;4111;50.972;7.072;2024-03-08T13:18:36;8.90;;;7.47;;
8139;SDS011;4111;50.972;7.072;2024-03-08T13:21:03;8.10;;;7.33;;
8139;SDS011;4111;50.972;7.072;2024-03-08T13:23:34;7.60;;;6.90;;
8139;SDS011;4111;50.972;7.072;2024-03-08T13:26:07;8.30;;;7.27;;
8139;SDS011;4111;50.972;7.072;2024-03-08T13:28:33;8.83;;;7.97;;
8139;SDS011;4111;50.972;7.072;2024-03-08T13:31:04;8.00;;;7.20;;
8139;SDS011;4111;50.972;7.072;2024-03-08T13:33:33;7.87;;;7.10;;
8139;SDS011;4111;50.972;7.072;2024-03-08T13:36:03;8.03;;;7.23;;
8139;SDS011;4111;50.972;7.072;2024-03-08T13:38:34;7.70;;;7.00;;
8139;SDS011;4111;50.972;7.072;2024-03-08T13:41:02;7.67;;;6.97;;
8139;SDS011;4111;50.972;7.072;2024-03-08T13:43:29;8.23;;;7.43;;
8139;SDS011;4111;50.972;7.072;2024-03-08T13:45:58;9.80;;;8.90;;
8139;SDS011;4111;50.972;7.072;2024-03-08T13:48:25;8.77;;;7.80;;
8139;SDS011;4111;50.972;7.072;2024-03-08T13:50:51;8.87;;;7.97;;
8139;SDS011;4111;50.972;7.072;2024-03-08T13:53:18;8.73;;;7.83;;
8139;SDS011;4111;50.972;7.072;2024-03-08T13:55:44;9.37;;;7.63;;
8139;SDS011;4111;50.972;7.072;2024-03-08T13:58:11;9.00;;;8.20;;
8139;SDS011;4111;50.972;7.072;2024-03-08T14:00:40;8.83;;;7.93;;
8139;SDS011;4111;50.972;7.072;2024-03-08T14:03:09;9.53;;;8.63;;
8139;SDS011;4111;50.972;7.072;2024-03-08T14:05:40;8.57;;;7.67;;
8139;SDS011;4111;50.972;7.072;2024-03-08T14:08:08;10.23;;;8.20;;
8139;SDS011;4111;50.972;7.072;2024-03-08T14:10:34;9.50;;;8.60;;
8139;SDS011;4111;50.972;7.072;2024-03-08T14:13:03;9.27;;;8.30;;
8139;SDS011;4111;50.972;7.072;2024-03-08T14:15:31;9.97;;;9.07;;
8139;SDS011;4111;50.972;7.072;2024-03-08T14:17:57;10.20;;;9.30;;
8139;SDS011;4111;50.972;7.072;2024-03-08T14:20:24;12.20;;;9.47;;
8139;SDS011;4111;50.972;7.072;2024-03-08T14:22:56;11.27;;;10.00;;
8139;SDS011;4111;50.972;7.072;2024-03-08T14:25:23;10.97;;;9.93;;
8139;SDS011;4111;50.972;7.072;2024-03-08T14:27:51;11.27;;;10.17;;
8139;SDS011;4111;50.972;7.072;2024-03-08T14:30:24;11.43;;;10.27;;
8139;SDS011;4111;50.972;7.072;2024-03-08T14:33:07;11.83;;;10.60;;
8139;SDS011;4111;50.972;7.072;2024-03-08T14:35:40;11.93;;;10.77;;
8139;SDS011;4111;50.972;7.072;2024-03-08T14:38:07;11.20;;;10.10;;
8139;SDS011;4111;50.972;7.072;2024-03-08T14:40:37;11.90;;;10.70;;
8139;SDS011;4111;50.972;7.072;2024-03-08T14:43:04;11.50;;;10.33;;
8139;SDS011;4111;50.972;7.072;2024-03-08T14:45:32;11.43;;;10.43;;
8139;SDS011;4111;50.972;7.072;2024-03-08T14:47:58;11.50;;;10.47;;
8139;SDS011;4111;50.972;7.072;2024-03-08T14:50:26;11.30;;;10.13;;
8139;SDS011;4111;50.972;7.072;2024-03-08T14:52:52;11.60;;;10.50;;
8139;SDS011;4111;50.972;7.072;2024-03-08T14:55:19;11.27;;;10.07;;
8139;SDS011;4111;50.972;7.072;2024-03-08T14:57:48;10.90;;;9.87;;
8139;SDS011;4111;50.972;7.072;2024-03-08T15:00:17;11.70;;;10.33;;
8139;SDS011;4111;50.972;7.072;2024-03-08T15:02:53;13.87;;;11.60;;
8139;SDS011;4111;50.972;7.072;2024-03-08T15:05:20;10.87;;;9.93;;
8139;SDS011;4111;50.972;7.072;2024-03-08T15:07:47;11.03;;;10.00;;
8139;SDS011;4111;50.972;7.072;2024-03-08T15:10:15;10.70;;;9.70;;
8139;SDS011;4111;50.972;7.072;2024-03-08T15:12:44;10.43;;;9.40;;